Terminal Aerodrome Forecast
Issued by NWS

Home | Current Version | Previous Version | Text Only | Print | Product List | Glossary On
Versions: 1 2 3 4 5 6 7 8 9 10 11 12
318
FTUS44 KBMX 162340
TAFEET
TAF
KEET 162340Z 1700/1724 00000KT P6SM SCT150 BKN250
     FM171500 10004KT 6SM -RA BR OVC025
     FM171730 06005KT 4SM -RA BR OVC015
     FM172100 11007KT 4SM -RA BR OVC007=

USA.gov is the U.S. government's official web portal to all federal, state and local government web resources and services.